createdAt,value
2018-06-12T00:00:07.756Z,101090.27
2018-06-12T00:02:36.066Z,101088.98
2018-06-12T00:05:04.773Z,101086.66
2018-06-12T00:07:33.086Z,101083.25
2018-06-12T00:10:01.353Z,101079.72
2018-06-12T00:12:29.672Z,101077.80
2018-06-12T00:14:57.953Z,101072.86
2018-06-12T00:17:26.333Z,101085.67
2018-06-12T00:19:54.650Z,101077.42
2018-06-12T00:22:22.925Z,101072.04
2018-06-12T00:24:52.341Z,101067.08
2018-06-12T00:27:20.632Z,101075.02
2018-06-12T00:29:48.941Z,101074.03
2018-06-12T00:32:17.221Z,101067.78
2018-06-12T00:34:45.541Z,101067.73
2018-06-12T00:37:13.847Z,101063.70
2018-06-12T00:39:42.153Z,101065.94
2018-06-12T00:42:11.538Z,101065.26
2018-06-12T00:44:39.849Z,101064.04
2018-06-12T00:47:08.275Z,101059.69
2018-06-12T00:49:36.577Z,101053.80
2018-06-12T00:52:04.865Z,101066.06
2018-06-12T00:54:35.254Z,101046.94
2018-06-12T00:57:07.843Z,101050.95
2018-06-12T00:59:36.165Z,101049.11
2018-06-12T01:02:04.945Z,101050.53
2018-06-12T01:04:33.257Z,101052.31
2018-06-12T01:07:01.561Z,101037.69
2018-06-12T01:09:29.892Z,101044.75
2018-06-12T01:11:58.210Z,101041.13
2018-06-12T01:14:27.517Z,101028.88
2018-06-12T01:16:55.825Z,101044.77
2018-06-12T01:19:25.205Z,101030.25
2018-06-12T01:21:53.905Z,101032.88
2018-06-12T01:24:22.217Z,101032.05
2018-06-12T01:26:50.535Z,101029.11
2018-06-12T01:29:19.178Z,101028.77
2018-06-12T01:31:47.498Z,101040.45
2018-06-12T01:34:15.778Z,101035.67
2018-06-12T01:36:44.105Z,101033.23
2018-06-12T01:39:12.398Z,101033.09
2018-06-12T01:41:40.688Z,101033.19
2018-06-12T01:44:08.957Z,101034.21
2018-06-12T01:46:37.259Z,101037.97
2018-06-12T01:49:05.564Z,101043.89
2018-06-12T01:51:33.862Z,101036.84
2018-06-12T01:54:02.137Z,101041.30
2018-06-12T01:56:30.437Z,101038.46
2018-06-12T01:58:58.773Z,101031.09
2018-06-12T02:01:27.153Z,101037.04
2018-06-12T02:03:55.448Z,101028.27
2018-06-12T02:06:23.788Z,101024.72
2018-06-12T02:08:52.109Z,101028.27
2018-06-12T02:11:20.439Z,101031.91
2018-06-12T02:13:48.766Z,101031.67
2018-06-12T02:16:17.117Z,101027.25
2018-06-12T02:18:45.447Z,101022.75
2018-06-12T02:21:13.793Z,101019.55
2018-06-12T02:23:42.149Z,101018.56
2018-06-12T02:26:10.457Z,101021.33
2018-06-12T02:28:38.763Z,101018.72
2018-06-12T02:31:07.107Z,101018.97
2018-06-12T02:33:35.409Z,101016.20
2018-06-12T02:36:03.689Z,101026.27
2018-06-12T02:38:32.376Z,101020.61
2018-06-12T02:41:00.659Z,101026.38
2018-06-12T02:43:28.938Z,101021.78
2018-06-12T02:45:57.245Z,101022.36
2018-06-12T02:48:25.514Z,101025.05
2018-06-12T02:50:53.832Z,101015.23
2018-06-12T02:53:23.162Z,101019.67
2018-06-12T02:55:51.465Z,101012.28
2018-06-12T02:58:19.739Z,101025.80
2018-06-12T03:00:48.053Z,101022.56
2018-06-12T03:03:16.373Z,101022.01
2018-06-12T03:05:44.689Z,101018.51
2018-06-12T03:08:13.000Z,101022.03
2018-06-12T03:10:41.309Z,101022.21
2018-06-12T03:13:11.645Z,101025.62
2018-06-12T03:15:39.991Z,101025.77
2018-06-12T03:18:08.699Z,101026.30
2018-06-12T03:20:46.537Z,101012.63
2018-06-12T03:23:14.843Z,101029.55
2018-06-12T03:25:43.216Z,101022.77
2018-06-12T03:28:11.508Z,101031.41
2018-06-12T03:30:39.854Z,101022.06
2018-06-12T03:33:08.202Z,101020.20
2018-06-12T03:35:36.489Z,101007.50
2018-06-12T03:38:04.803Z,101014.09
2018-06-12T03:40:33.109Z,101009.48
2018-06-12T03:43:01.662Z,101014.95
2018-06-12T03:45:31.982Z,101004.20
2018-06-12T03:48:00.273Z,101005.53
2018-06-12T03:50:29.557Z,101016.01
2018-06-12T03:52:57.877Z,101012.05
2018-06-12T03:55:28.170Z,101012.23
2018-06-12T03:58:00.585Z,101018.21
2018-06-12T04:00:29.976Z,101026.48
2018-06-12T04:02:58.262Z,101031.52
2018-06-12T04:05:26.581Z,101028.75
2018-06-12T04:07:54.913Z,101028.10
2018-06-12T04:10:23.185Z,101026.73
2018-06-12T04:12:55.393Z,101032.24
2018-06-12T04:15:23.680Z,101022.50
2018-06-12T04:17:52.005Z,101023.07
2018-06-12T04:20:21.293Z,101027.30
2018-06-12T04:22:49.565Z,101020.15
2018-06-12T04:25:17.915Z,101021.10
2018-06-12T04:27:46.201Z,101017.61
2018-06-12T04:30:15.593Z,101027.44
2018-06-12T04:32:43.857Z,101033.70
2018-06-12T04:35:12.169Z,101034.66
2018-06-12T04:37:40.441Z,101037.33
2018-06-12T04:40:08.753Z,101040.58
2018-06-12T04:42:38.121Z,101042.62
2018-06-12T04:45:06.429Z,101039.39
2018-06-12T04:47:34.718Z,101040.32
2018-06-12T04:50:04.149Z,101041.47
2018-06-12T04:52:32.439Z,101026.17
2018-06-12T04:55:00.909Z,101044.94
2018-06-12T04:57:29.178Z,101024.58
2018-06-12T04:59:58.639Z,101044.42
2018-06-12T05:02:26.929Z,101042.52
2018-06-12T05:04:55.201Z,101037.69
2018-06-12T05:07:23.506Z,101030.59
2018-06-12T05:09:51.889Z,101035.20
2018-06-12T05:12:20.196Z,101039.59
2018-06-12T05:14:49.467Z,101028.53
2018-06-12T05:17:17.766Z,101044.53
2018-06-12T05:19:46.037Z,101041.55
2018-06-12T05:22:15.329Z,101045.81
2018-06-12T05:24:43.641Z,101054.55
2018-06-12T05:27:11.950Z,101047.92
2018-06-12T05:29:40.217Z,101048.62
2018-06-12T05:32:08.526Z,101041.38
2018-06-12T05:34:37.801Z,101050.70
2018-06-12T05:37:06.118Z,101050.70
2018-06-12T05:39:34.397Z,101048.38
2018-06-12T05:42:02.703Z,101047.39
2018-06-12T05:44:30.986Z,101056.09
2018-06-12T05:46:59.289Z,101050.72
2018-06-12T05:49:28.644Z,101048.88
2018-06-12T05:51:56.982Z,101058.33
2018-06-12T05:54:25.245Z,101068.39
2018-06-12T05:56:53.524Z,101070.49
2018-06-12T05:59:21.820Z,101059.44
2018-06-12T06:01:52.353Z,101064.48
2018-06-12T06:04:21.689Z,101073.03
2018-06-12T06:06:50.073Z,101078.58
2018-06-12T06:09:18.477Z,101078.73
2018-06-12T06:11:46.802Z,101077.48
2018-06-12T06:14:15.121Z,101075.92
2018-06-12T06:16:43.475Z,101072.85
2018-06-12T06:19:11.941Z,101074.27
2018-06-12T06:21:40.328Z,101074.48
2018-06-12T06:24:09.668Z,101055.17
2018-06-12T06:26:41.073Z,101083.92
2018-06-12T06:29:12.965Z,101078.78
2018-06-12T06:31:41.333Z,101076.84
2018-06-12T06:52:28.997Z,101085.09
2018-06-12T06:54:59.699Z,101083.25
2018-06-12T06:57:33.459Z,101084.39
2018-06-12T07:00:04.686Z,101070.13
2018-06-12T07:02:39.126Z,101084.06
2018-06-12T07:05:07.731Z,101085.45
2018-06-12T07:07:36.029Z,101075.70
2018-06-12T07:10:05.325Z,101074.81
2018-06-12T07:12:33.736Z,101067.46
2018-06-12T07:18:10.965Z,101068.86
2018-06-12T07:21:20.609Z,101074.59
2018-06-12T07:23:48.911Z,101071.24
2018-06-12T07:26:17.313Z,101085.05
2018-06-12T07:28:45.590Z,101070.53
2018-06-12T07:31:13.860Z,101074.49
2018-06-12T07:33:42.269Z,101072.24
2018-06-12T07:36:10.529Z,101068.66
2018-06-12T07:38:38.826Z,101062.58
2018-06-12T07:41:07.085Z,101071.30
2018-06-12T07:43:35.483Z,101070.91
2018-06-12T07:46:04.937Z,101056.30
2018-06-12T07:48:33.253Z,101070.61
2018-06-12T07:51:01.599Z,101075.97
2018-06-12T07:53:29.885Z,101076.25
2018-06-12T07:55:58.246Z,101067.77
2018-06-12T07:58:26.548Z,101071.80
2018-06-12T08:00:54.929Z,101070.47
2018-06-12T08:03:23.312Z,101067.17
2018-06-12T08:05:51.703Z,101064.78
2018-06-12T08:08:22.099Z,101065.12
2018-06-12T08:10:50.493Z,101073.41
2018-06-12T08:13:18.842Z,101074.41
2018-06-12T08:15:47.116Z,101071.96
2018-06-12T08:18:15.364Z,101070.30
2018-06-12T08:20:44.725Z,101070.44
2018-06-12T08:23:12.973Z,101081.45
2018-06-12T08:25:41.284Z,101082.57
2018-06-12T08:32:59.508Z,101075.44
2018-06-12T08:35:27.798Z,101072.13
2018-06-12T08:37:56.070Z,101075.11
2018-06-12T08:40:24.389Z,101084.52
2018-06-12T08:42:52.637Z,101080.95
2018-06-12T08:45:20.890Z,101090.61
2018-06-12T08:47:49.165Z,101075.59
2018-06-12T08:50:17.417Z,101077.52
2018-06-12T08:52:45.749Z,101079.31
2018-06-12T08:55:15.067Z,101080.02
2018-06-12T08:57:43.347Z,101077.70
2018-06-12T09:00:11.685Z,101083.64
2018-06-12T09:02:40.029Z,101077.68
2018-06-12T09:05:08.277Z,101079.56
2018-06-12T09:07:36.621Z,101078.06
2018-06-12T09:10:04.992Z,101085.67
2018-06-12T09:12:33.277Z,101080.68
2018-06-12T09:15:01.543Z,101078.36
2018-06-12T09:17:30.865Z,101083.48
2018-06-12T09:19:59.216Z,101082.05
2018-06-12T09:22:27.500Z,101080.39
2018-06-12T09:24:55.821Z,101080.06
2018-06-12T09:27:24.153Z,101081.05
2018-06-12T09:29:53.442Z,101081.68
2018-06-12T09:32:21.693Z,101083.69
2018-06-12T09:34:51.149Z,101085.17
2018-06-12T09:37:19.430Z,101091.52
2018-06-12T09:39:47.745Z,101088.14
2018-06-12T09:42:16.042Z,101082.33
2018-06-12T09:44:44.458Z,101095.58
2018-06-12T09:47:12.717Z,101088.55
2018-06-12T09:49:41.030Z,101089.83
2018-06-12T09:52:09.298Z,101095.80
2018-06-12T09:54:37.598Z,101079.05
2018-06-12T09:57:06.057Z,101088.23
2018-06-12T09:59:34.379Z,101104.66
2018-06-12T10:02:02.665Z,101103.37
2018-06-12T10:04:31.997Z,101101.33
2018-06-12T10:07:00.289Z,101108.84
2018-06-12T10:09:28.598Z,101103.92
2018-06-12T10:11:56.888Z,101115.28
2018-06-12T10:14:25.197Z,101112.50
2018-06-12T10:16:53.457Z,101111.23
2018-06-12T10:19:21.753Z,101107.20
2018-06-12T10:21:50.093Z,101114.40
2018-06-12T10:24:19.445Z,101113.30
2018-06-12T10:26:48.824Z,101106.70
2018-06-12T10:29:17.246Z,101106.38
2018-06-12T10:31:46.640Z,101105.05
2018-06-12T10:34:14.904Z,101119.84
2018-06-12T10:36:43.193Z,101112.99
2018-06-12T10:39:11.496Z,101107.59
2018-06-12T10:41:39.823Z,101114.20
2018-06-12T10:44:09.102Z,101110.89
2018-06-12T10:46:37.510Z,101107.86
2018-06-12T10:49:06.048Z,101104.92
2018-06-12T10:51:34.362Z,101101.67
2018-06-12T10:54:02.736Z,101102.80
2018-06-12T10:56:31.089Z,101106.92
2018-06-12T10:58:59.317Z,101110.69
2018-06-12T11:01:27.624Z,101105.98
2018-06-12T11:03:55.884Z,101110.61
2018-06-12T11:06:24.617Z,101113.43
2018-06-12T11:08:52.905Z,101109.80
2018-06-12T11:11:21.217Z,101113.52
2018-06-12T11:13:49.657Z,101112.52
2018-06-12T11:16:18.020Z,101116.56
2018-06-12T11:18:46.301Z,101108.59
2018-06-12T11:21:15.549Z,101108.14
2018-06-12T11:23:43.841Z,101103.52
2018-06-12T11:26:12.258Z,101104.05
2018-06-12T11:28:40.574Z,101114.16
2018-06-12T11:31:08.901Z,101117.08
2018-06-12T11:33:37.246Z,101116.50
2018-06-12T11:36:05.517Z,101112.84
2018-06-12T11:38:33.821Z,101116.95
2018-06-12T11:41:02.109Z,101110.38
2018-06-12T11:43:30.406Z,101103.75
2018-06-12T11:45:58.686Z,101101.59
2018-06-12T11:48:26.981Z,101103.15
2018-06-12T11:50:56.438Z,101101.95
2018-06-12T11:53:24.713Z,101102.96
2018-06-12T11:55:52.997Z,101106.62
2018-06-12T11:58:21.317Z,101104.09
2018-06-12T12:00:49.609Z,101107.20
2018-06-12T12:03:17.890Z,101102.12
2018-06-12T12:05:46.197Z,101103.27
2018-06-12T12:08:14.465Z,101116.27
2018-06-12T12:10:42.811Z,101099.06
2018-06-12T12:13:11.138Z,101102.18
2018-06-12T12:15:40.460Z,101094.56
2018-06-12T12:18:09.941Z,101096.43
2018-06-12T12:20:38.253Z,101077.89
2018-06-12T12:23:06.522Z,101100.52
2018-06-12T12:25:35.913Z,101105.90
2018-06-12T12:28:04.253Z,101102.49
2018-06-12T12:30:32.541Z,101106.39
2018-06-12T12:33:00.813Z,101110.03
2018-06-12T12:35:29.129Z,101104.24
2018-06-12T12:37:57.557Z,101112.89
2018-06-12T12:40:25.909Z,101119.83
2018-06-12T12:42:54.231Z,101114.11
2018-06-12T12:45:22.510Z,101120.30
2018-06-12T12:47:50.821Z,101117.34
2018-06-12T12:50:19.155Z,101119.19
2018-06-12T12:52:47.469Z,101119.30
2018-06-12T12:55:15.837Z,101107.49
2018-06-12T12:57:44.221Z,101110.92
2018-06-12T13:00:12.582Z,101106.01
2018-06-12T13:02:41.985Z,101113.36
2018-06-12T13:05:10.361Z,101108.64
2018-06-12T13:07:38.777Z,101110.23
2018-06-12T13:10:07.122Z,101113.16
2018-06-12T13:12:35.409Z,101119.72
2018-06-12T13:15:03.789Z,101102.40
2018-06-12T13:17:32.207Z,101110.85
2018-06-12T13:20:00.622Z,101111.90
2018-06-12T13:22:28.917Z,101107.56
2018-06-12T13:24:57.308Z,101125.45
2018-06-12T13:27:25.689Z,101116.30
2018-06-12T13:29:54.045Z,101089.98
2018-06-12T13:32:22.324Z,101109.13
2018-06-12T13:34:50.650Z,101111.57
2018-06-12T13:37:19.990Z,101112.92
2018-06-12T13:39:48.394Z,101121.72
2018-06-12T13:42:16.833Z,101113.95
2018-06-12T13:44:49.591Z,101114.38
2018-06-12T13:47:17.921Z,101111.82
2018-06-12T13:49:47.252Z,101108.55
2018-06-12T13:52:15.584Z,101119.42
2018-06-12T13:54:45.989Z,101121.06
2018-06-12T13:57:14.321Z,101115.98
2018-06-12T13:59:42.687Z,101115.84
2018-06-12T14:02:11.981Z,101113.85
2018-06-12T14:04:40.325Z,101110.08
2018-06-12T14:07:08.715Z,101117.28
2018-06-12T14:09:37.023Z,101125.20
2018-06-12T14:12:05.381Z,101112.84
2018-06-12T14:14:35.097Z,101118.48
2018-06-12T14:17:03.466Z,101108.13
2018-06-12T14:19:31.858Z,101115.41
2018-06-12T14:22:00.305Z,101122.19
2018-06-12T14:24:28.609Z,101117.98
2018-06-12T14:26:57.962Z,101120.17
2018-06-12T14:29:26.218Z,101116.16
2018-06-12T14:31:54.595Z,101108.53
2018-06-12T14:34:22.954Z,101096.30
2018-06-12T14:36:51.369Z,101110.57
2018-06-12T14:39:19.706Z,101116.52
2018-06-12T14:41:49.047Z,101106.25
2018-06-12T14:44:17.413Z,101109.56
2018-06-12T14:46:46.814Z,101097.95
2018-06-12T14:49:15.102Z,101100.92
2018-06-12T14:51:43.462Z,101107.74
2018-06-12T14:54:11.817Z,101109.54
2018-06-12T14:56:40.217Z,101088.48
2018-06-12T14:59:08.591Z,101107.22
2018-06-12T15:01:36.880Z,101117.02
2018-06-12T15:04:05.301Z,101107.92
2018-06-12T15:06:33.628Z,101108.58
2018-06-12T15:09:01.984Z,101110.12
2018-06-12T15:11:31.345Z,101103.50
2018-06-12T15:13:59.648Z,101105.50
2018-06-12T15:16:27.933Z,101090.88
2018-06-12T15:18:57.323Z,101103.83
2018-06-12T15:21:25.538Z,101100.24
2018-06-12T15:23:53.820Z,101093.44
2018-06-12T15:26:23.162Z,101086.37
2018-06-12T15:28:51.457Z,101097.81
2018-06-12T15:31:19.711Z,101100.78
2018-06-12T15:33:48.049Z,101095.27
2018-06-12T15:36:16.386Z,101101.72
2018-06-12T15:43:34.559Z,101102.23
2018-06-12T15:46:02.820Z,101097.39
2018-06-12T15:48:31.138Z,101098.57
2018-06-12T15:50:59.509Z,101096.28
2018-06-12T15:53:37.773Z,101096.90
2018-06-12T15:56:06.147Z,101094.34
2018-06-12T15:58:34.364Z,101095.89
2018-06-12T16:01:02.656Z,101092.28
2018-06-12T16:03:32.990Z,101085.02
2018-06-12T16:06:01.295Z,101083.38
2018-06-12T16:08:29.576Z,101086.61
2018-06-12T16:10:57.858Z,101085.55
2018-06-12T16:13:26.146Z,101080.83
2018-06-12T16:15:54.426Z,101079.42
2018-06-12T16:18:22.691Z,101082.47
2018-06-12T16:20:52.061Z,101076.48
2018-06-12T16:23:20.309Z,101085.66
2018-06-12T16:25:48.625Z,101085.91
2018-06-12T16:28:17.957Z,101089.91
2018-06-12T16:30:47.381Z,101087.39
2018-06-12T16:33:15.856Z,101089.26
2018-06-12T16:35:44.141Z,101094.45
2018-06-12T16:38:12.406Z,101082.24
2018-06-12T16:40:40.677Z,101079.01
2018-06-12T16:43:08.951Z,101089.90
2018-06-12T16:45:37.234Z,101086.17
2018-06-12T16:48:05.940Z,101080.13
2018-06-12T16:50:34.210Z,101076.05
2018-06-12T16:53:03.527Z,101080.36
2018-06-12T16:55:31.774Z,101079.62
2018-06-12T16:58:00.077Z,101083.59
2018-06-12T17:00:28.410Z,101077.69
2018-06-12T17:02:56.705Z,101080.87
2018-06-12T17:05:24.981Z,101080.59
2018-06-12T17:07:54.385Z,101072.13
2018-06-12T17:10:22.666Z,101067.11
2018-06-12T17:12:51.001Z,101068.57
2018-06-12T17:15:19.360Z,101071.84
2018-06-12T17:17:48.717Z,101076.39
2018-06-12T17:20:16.996Z,101062.25
2018-06-12T17:22:45.251Z,101079.40
2018-06-12T17:25:13.565Z,101074.77
2018-06-12T17:27:43.889Z,101087.24
2018-06-12T17:30:12.265Z,101084.18
2018-06-12T17:32:40.541Z,101088.23
2018-06-12T17:35:08.841Z,101080.48
2018-06-12T17:37:37.133Z,101081.59
2018-06-12T17:40:05.467Z,101087.20
2018-06-12T17:42:33.749Z,101082.75
2018-06-12T17:45:02.058Z,101076.15
2018-06-12T17:47:30.337Z,101081.14
2018-06-12T17:49:58.632Z,101079.67
2018-06-12T17:52:26.905Z,101080.48
2018-06-12T17:54:55.220Z,101088.09
2018-06-12T17:57:23.481Z,101070.73
2018-06-12T17:59:51.786Z,101070.47
2018-06-12T18:02:20.134Z,101074.53
2018-06-12T18:04:48.425Z,101080.66
2018-06-12T18:07:16.822Z,101078.34
2018-06-12T18:09:45.164Z,101083.28
2018-06-12T18:12:13.467Z,101087.13
2018-06-12T18:14:41.827Z,101088.56
2018-06-12T18:17:10.241Z,101087.46
2018-06-12T18:19:38.589Z,101093.75
2018-06-12T18:22:06.925Z,101095.20
2018-06-12T18:24:35.236Z,101096.42
2018-06-12T18:27:03.649Z,101105.84
2018-06-12T18:29:33.013Z,101102.55
2018-06-12T18:32:01.331Z,101089.12
2018-06-12T18:34:29.601Z,101095.07
2018-06-12T18:36:58.873Z,101097.59
2018-06-12T18:39:27.153Z,101100.97
2018-06-12T18:41:55.507Z,101101.25
2018-06-12T18:44:25.879Z,101111.79
2018-06-12T18:46:54.214Z,101092.17
2018-06-12T18:49:22.496Z,101104.87
2018-06-12T18:51:50.764Z,101099.03
2018-06-12T18:54:19.062Z,101095.80
2018-06-12T18:56:47.414Z,101098.61
2018-06-12T18:59:15.809Z,101109.49
2018-06-12T19:01:45.099Z,101114.42
2018-06-12T19:04:15.451Z,101104.23
2018-06-12T19:06:43.891Z,101104.89
2018-06-12T19:09:12.124Z,101106.77
2018-06-12T19:11:40.501Z,101107.52
2018-06-12T19:14:08.863Z,101101.75
2018-06-12T19:16:37.249Z,101103.00
2018-06-12T19:19:05.961Z,101108.45
2018-06-12T19:21:35.289Z,101108.63
2018-06-12T19:24:03.549Z,101106.83
2018-06-12T19:26:31.897Z,101110.56
2018-06-12T19:29:00.117Z,101112.95
2018-06-12T19:31:28.433Z,101112.56
2018-06-12T19:33:56.690Z,101114.83
2018-06-12T19:36:25.013Z,101116.34
2018-06-12T19:38:53.329Z,101120.96
2018-06-12T19:41:21.654Z,101123.02
2018-06-12T19:43:49.990Z,101117.31
2018-06-12T19:46:18.286Z,101108.35
2018-06-12T19:48:46.579Z,101119.77
2018-06-12T19:51:14.894Z,101122.92
2018-06-12T19:53:43.222Z,101126.00
2018-06-12T19:56:12.553Z,101130.59
2018-06-12T19:58:40.807Z,101129.56
2018-06-12T20:01:09.181Z,101129.09
2018-06-12T20:03:37.595Z,101125.11
2018-06-12T20:06:06.954Z,101121.49
2018-06-12T20:08:35.349Z,101121.45
2018-06-12T20:11:04.624Z,101129.31
2018-06-12T20:13:33.053Z,101126.20
2018-06-12T20:16:01.461Z,101128.81
2018-06-12T20:18:29.781Z,101134.19
2018-06-12T20:20:58.130Z,101134.87
2018-06-12T20:23:26.421Z,101142.02
2018-06-12T20:26:58.104Z,101141.56
2018-06-12T20:29:26.490Z,101146.50
2018-06-12T20:31:54.821Z,101120.56
2018-06-12T20:34:23.109Z,101141.64
2018-06-12T20:36:52.412Z,101135.54
2018-06-12T20:39:20.744Z,101130.11
2018-06-12T20:41:49.065Z,101132.48
2018-06-12T20:44:17.376Z,101138.05
2018-06-12T20:46:45.761Z,101124.85
2018-06-12T20:49:14.008Z,101130.76
2018-06-12T20:51:42.353Z,101125.34
2018-06-12T20:54:10.787Z,101127.78
2018-06-12T20:56:39.065Z,101125.22
2018-06-12T20:59:09.537Z,101129.78
2018-06-12T21:01:37.927Z,101135.64
2018-06-12T21:04:06.498Z,101130.15
2018-06-12T21:06:34.833Z,101124.22
2018-06-12T21:09:03.579Z,101129.79
2018-06-12T21:11:32.054Z,101133.17
2018-06-12T21:14:00.481Z,101132.02
2018-06-12T21:16:29.889Z,101124.14
2018-06-12T21:18:58.220Z,101131.27
2018-06-12T21:21:27.533Z,101124.58
2018-06-12T21:23:55.880Z,101131.93
2018-06-12T21:26:24.221Z,101127.55
2018-06-12T21:28:52.543Z,101125.19
2018-06-12T21:31:20.933Z,101133.00
2018-06-12T21:33:49.381Z,101133.30
2018-06-12T21:36:17.709Z,101135.39
2018-06-12T21:38:46.139Z,101127.28
2018-06-12T21:41:14.505Z,101138.11
2018-06-12T21:43:42.862Z,101130.39
2018-06-12T21:46:11.094Z,101136.15
2018-06-12T21:48:39.431Z,101133.45
2018-06-12T21:51:07.716Z,101129.91
2018-06-12T21:53:36.049Z,101132.97
2018-06-12T21:56:04.402Z,101133.52
2018-06-12T21:58:32.777Z,101133.03
2018-06-12T22:01:01.161Z,101132.89
2018-06-12T22:03:29.497Z,101143.27
2018-06-12T22:05:57.773Z,101139.67
2018-06-12T22:08:26.073Z,101139.38
2018-06-12T22:10:54.351Z,101131.91
2018-06-12T22:13:22.634Z,101133.57
2018-06-12T22:15:50.921Z,101134.20
2018-06-12T22:18:19.234Z,101128.25
2018-06-12T22:20:47.497Z,101131.33
2018-06-12T22:23:15.758Z,101131.62
2018-06-12T22:25:44.041Z,101131.27
2018-06-12T22:28:12.338Z,101132.80
2018-06-12T22:30:40.634Z,101138.19
2018-06-12T22:33:09.084Z,101137.08
2018-06-12T22:35:37.365Z,101133.40
2018-06-12T22:38:05.640Z,101136.38
2018-06-12T22:40:33.941Z,101137.98
2018-06-12T22:43:02.222Z,101127.33
2018-06-12T22:45:30.520Z,101131.80
2018-06-12T22:48:05.261Z,101132.40
2018-06-12T22:50:33.618Z,101137.80
2018-06-12T22:53:01.885Z,101138.80
2018-06-12T22:55:30.306Z,101134.44
2018-06-12T22:57:59.165Z,101136.53
2018-06-12T23:00:27.465Z,101141.19
2018-06-12T23:02:55.737Z,101141.00
2018-06-12T23:05:24.056Z,101139.48
2018-06-12T23:07:54.221Z,101144.59
2018-06-12T23:10:26.504Z,101141.19
2018-06-12T23:12:54.778Z,101139.14
2018-06-12T23:15:23.115Z,101135.67
2018-06-12T23:17:51.425Z,101135.19
2018-06-12T23:20:31.029Z,101139.02
2018-06-12T23:22:59.390Z,101139.84
2018-06-12T23:25:28.781Z,101130.69
2018-06-12T23:27:57.151Z,101130.86
2018-06-12T23:30:26.447Z,101130.78
2018-06-12T23:32:54.807Z,101127.53
2018-06-12T23:35:23.099Z,101120.44
2018-06-12T23:37:51.425Z,101123.88
2018-06-12T23:40:20.084Z,101117.20
2018-06-12T23:42:48.396Z,101120.06
2018-06-12T23:45:17.773Z,101115.16
2018-06-12T23:47:46.105Z,101119.19
2018-06-12T23:50:15.406Z,101116.39
2018-06-12T23:52:43.781Z,101113.44
2018-06-12T23:55:13.146Z,101125.23
2018-06-12T23:57:41.519Z,101113.84
